sensor_id;sensor_type;location;lat;lon;timestamp;temperature;humidity
37806;DHT22;25082;50.870;0.022;2023-04-25T00:01:04;18.10;65.50
37806;DHT22;25082;50.870;0.022;2023-04-25T00:03:31;18.10;65.50
37806;DHT22;25082;50.870;0.022;2023-04-25T00:05:58;18.10;65.50
37806;DHT22;25082;50.870;0.022;2023-04-25T00:08:28;18.10;65.60
37806;DHT22;25082;50.870;0.022;2023-04-25T00:10:54;18.10;65.40
37806;DHT22;25082;50.870;0.022;2023-04-25T00:13:20;18.10;65.40
37806;DHT22;25082;50.870;0.022;2023-04-25T00:15:47;18.10;65.30
37806;DHT22;25082;50.870;0.022;2023-04-25T00:18:14;18.00;65.20
37806;DHT22;25082;50.870;0.022;2023-04-25T00:20:40;18.00;65.30
37806;DHT22;25082;50.870;0.022;2023-04-25T00:23:09;18.00;65.30
37806;DHT22;25082;50.870;0.022;2023-04-25T00:25:35;18.00;65.10
37806;DHT22;25082;50.870;0.022;2023-04-25T00:28:01;18.00;65.20
37806;DHT22;25082;50.870;0.022;2023-04-25T00:30:27;18.00;65.00
37806;DHT22;25082;50.870;0.022;2023-04-25T00:32:53;18.00;65.00
37806;DHT22;25082;50.870;0.022;2023-04-25T00:35:18;18.00;65.70
37806;DHT22;25082;50.870;0.022;2023-04-25T00:37:45;18.00;65.00
37806;DHT22;25082;50.870;0.022;2023-04-25T00:40:11;18.00;64.90
37806;DHT22;25082;50.870;0.022;2023-04-25T00:42:37;18.00;64.80
37806;DHT22;25082;50.870;0.022;2023-04-25T00:45:05;18.00;65.40
37806;DHT22;25082;50.870;0.022;2023-04-25T00:47:32;18.00;64.80
37806;DHT22;25082;50.870;0.022;2023-04-25T00:49:58;18.00;64.80
37806;DHT22;25082;50.870;0.022;2023-04-25T00:52:24;17.90;64.80
37806;DHT22;25082;50.870;0.022;2023-04-25T00:54:50;17.90;64.80
37806;DHT22;25082;50.870;0.022;2023-04-25T00:57:16;17.90;64.70
37806;DHT22;25082;50.870;0.022;2023-04-25T00:59:45;17.90;64.70
37806;DHT22;25082;50.870;0.022;2023-04-25T01:02:12;17.90;64.60
37806;DHT22;25082;50.870;0.022;2023-04-25T01:04:38;17.90;64.50
37806;DHT22;25082;50.870;0.022;2023-04-25T01:07:04;17.90;64.70
37806;DHT22;25082;50.870;0.022;2023-04-25T01:09:30;17.90;64.60
37806;DHT22;25082;50.870;0.022;2023-04-25T01:11:57;17.90;64.60
37806;DHT22;25082;50.870;0.022;2023-04-25T01:14:23;17.90;64.60
37806;DHT22;25082;50.870;0.022;2023-04-25T01:16:49;17.80;64.50
37806;DHT22;25082;50.870;0.022;2023-04-25T01:19:17;17.80;64.50
37806;DHT22;25082;50.870;0.022;2023-04-25T01:21:43;17.90;64.50
37806;DHT22;25082;50.870;0.022;2023-04-25T01:24:10;17.80;64.40
37806;DHT22;25082;50.870;0.022;2023-04-25T01:26:37;17.80;64.40
37806;DHT22;25082;50.870;0.022;2023-04-25T01:29:04;17.80;64.40
37806;DHT22;25082;50.870;0.022;2023-04-25T01:31:30;17.80;64.30
37806;DHT22;25082;50.870;0.022;2023-04-25T01:33:57;17.80;64.40
37806;DHT22;25082;50.870;0.022;2023-04-25T01:36:23;17.80;64.40
37806;DHT22;25082;50.870;0.022;2023-04-25T01:38:49;17.80;64.30
37806;DHT22;25082;50.870;0.022;2023-04-25T01:41:15;17.70;64.20
37806;DHT22;25082;50.870;0.022;2023-04-25T01:43:43;17.70;64.30
37806;DHT22;25082;50.870;0.022;2023-04-25T01:46:10;17.70;64.40
37806;DHT22;25082;50.870;0.022;2023-04-25T01:48:36;17.70;64.30
37806;DHT22;25082;50.870;0.022;2023-04-25T01:51:02;17.70;64.20
37806;DHT22;25082;50.870;0.022;2023-04-25T01:53:28;17.70;64.30
37806;DHT22;25082;50.870;0.022;2023-04-25T01:55:54;17.70;64.20
37806;DHT22;25082;50.870;0.022;2023-04-25T01:58:19;17.70;64.30
37806;DHT22;25082;50.870;0.022;2023-04-25T02:00:46;17.70;64.20
37806;DHT22;25082;50.870;0.022;2023-04-25T02:03:12;17.70;64.20
37806;DHT22;25082;50.870;0.022;2023-04-25T02:05:38;17.70;64.20
37806;DHT22;25082;50.870;0.022;2023-04-25T02:08:06;17.70;64.10
37806;DHT22;25082;50.870;0.022;2023-04-25T02:10:33;17.70;64.20
37806;DHT22;25082;50.870;0.022;2023-04-25T02:12:59;17.70;64.10
37806;DHT22;25082;50.870;0.022;2023-04-25T02:15:25;17.60;64.10
37806;DHT22;25082;50.870;0.022;2023-04-25T02:17:51;17.60;64.00
37806;DHT22;25082;50.870;0.022;2023-04-25T02:20:19;17.60;64.00
37806;DHT22;25082;50.870;0.022;2023-04-25T02:22:46;17.60;64.00
37806;DHT22;25082;50.870;0.022;2023-04-25T02:25:11;17.60;64.10
37806;DHT22;25082;50.870;0.022;2023-04-25T02:27:38;17.60;64.00
37806;DHT22;25082;50.870;0.022;2023-04-25T02:30:05;17.60;63.90
37806;DHT22;25082;50.870;0.022;2023-04-25T02:32:32;17.60;64.00
37806;DHT22;25082;50.870;0.022;2023-04-25T02:35:02;17.50;63.90
37806;DHT22;25082;50.870;0.022;2023-04-25T02:37:37;17.50;63.90
37806;DHT22;25082;50.870;0.022;2023-04-25T02:40:03;17.50;63.90
37806;DHT22;25082;50.870;0.022;2023-04-25T02:42:30;17.50;63.80
37806;DHT22;25082;50.870;0.022;2023-04-25T02:44:55;17.50;63.80
37806;DHT22;25082;50.870;0.022;2023-04-25T02:47:21;17.50;63.80
37806;DHT22;25082;50.870;0.022;2023-04-25T02:49:47;17.50;63.80
37806;DHT22;25082;50.870;0.022;2023-04-25T02:52:13;17.50;63.90
37806;DHT22;25082;50.870;0.022;2023-04-25T02:54:40;17.50;63.90
37806;DHT22;25082;50.870;0.022;2023-04-25T02:57:06;17.50;63.80
37806;DHT22;25082;50.870;0.022;2023-04-25T02:59:32;17.50;63.80
37806;DHT22;25082;50.870;0.022;2023-04-25T03:01:58;17.50;63.80
37806;DHT22;25082;50.870;0.022;2023-04-25T03:04:24;17.50;63.70
37806;DHT22;25082;50.870;0.022;2023-04-25T03:06:53;17.50;63.70
37806;DHT22;25082;50.870;0.022;2023-04-25T03:09:19;17.40;63.60
37806;DHT22;25082;50.870;0.022;2023-04-25T03:11:45;17.40;63.60
37806;DHT22;25082;50.870;0.022;2023-04-25T03:14:11;17.40;63.70
37806;DHT22;25082;50.870;0.022;2023-04-25T03:16:37;17.40;63.60
37806;DHT22;25082;50.870;0.022;2023-04-25T03:19:03;17.40;63.70
37806;DHT22;25082;50.870;0.022;2023-04-25T03:21:30;17.40;63.70
37806;DHT22;25082;50.870;0.022;2023-04-25T03:23:58;17.40;63.60
37806;DHT22;25082;50.870;0.022;2023-04-25T03:26:24;17.40;63.50
37806;DHT22;25082;50.870;0.022;2023-04-25T03:28:49;17.40;63.50
37806;DHT22;25082;50.870;0.022;2023-04-25T03:31:15;17.40;63.60
37806;DHT22;25082;50.870;0.022;2023-04-25T03:33:41;17.40;63.50
37806;DHT22;25082;50.870;0.022;2023-04-25T03:36:07;17.40;63.60
37806;DHT22;25082;50.870;0.022;2023-04-25T03:38:33;17.30;63.50
37806;DHT22;25082;50.870;0.022;2023-04-25T03:40:58;17.30;63.40
37806;DHT22;25082;50.870;0.022;2023-04-25T03:43:24;17.30;63.40
37806;DHT22;25082;50.870;0.022;2023-04-25T03:45:50;17.30;63.30
37806;DHT22;25082;50.870;0.022;2023-04-25T03:48:16;17.30;63.30
37806;DHT22;25082;50.870;0.022;2023-04-25T03:50:42;17.30;63.30
37806;DHT22;25082;50.870;0.022;2023-04-25T03:53:07;17.30;63.30
37806;DHT22;25082;50.870;0.022;2023-04-25T03:55:33;17.20;63.30
37806;DHT22;25082;50.870;0.022;2023-04-25T03:57:59;17.30;63.40
37806;DHT22;25082;50.870;0.022;2023-04-25T04:00:25;17.20;63.20
37806;DHT22;25082;50.870;0.022;2023-04-25T04:02:51;17.20;63.30
37806;DHT22;25082;50.870;0.022;2023-04-25T04:05:17;17.20;63.30
37806;DHT22;25082;50.870;0.022;2023-04-25T04:07:43;17.20;63.40
37806;DHT22;25082;50.870;0.022;2023-04-25T04:10:11;17.20;63.20
37806;DHT22;25082;50.870;0.022;2023-04-25T04:12:37;17.20;63.20
37806;DHT22;25082;50.870;0.022;2023-04-25T04:15:06;17.20;63.30
37806;DHT22;25082;50.870;0.022;2023-04-25T04:17:33;17.20;63.20
37806;DHT22;25082;50.870;0.022;2023-04-25T04:19:59;17.20;63.20
37806;DHT22;25082;50.870;0.022;2023-04-25T04:22:25;17.20;63.10
37806;DHT22;25082;50.870;0.022;2023-04-25T04:24:51;17.20;63.10
37806;DHT22;25082;50.870;0.022;2023-04-25T04:27:22;17.20;63.10
37806;DHT22;25082;50.870;0.022;2023-04-25T04:29:48;17.20;63.00
37806;DHT22;25082;50.870;0.022;2023-04-25T04:32:15;17.10;62.90
37806;DHT22;25082;50.870;0.022;2023-04-25T04:34:41;17.10;63.00
37806;DHT22;25082;50.870;0.022;2023-04-25T04:37:07;17.10;62.80
37806;DHT22;25082;50.870;0.022;2023-04-25T04:39:36;17.10;63.00
37806;DHT22;25082;50.870;0.022;2023-04-25T04:42:02;17.10;63.00
37806;DHT22;25082;50.870;0.022;2023-04-25T04:44:29;17.10;62.80
37806;DHT22;25082;50.870;0.022;2023-04-25T04:46:58;17.10;62.80
37806;DHT22;25082;50.870;0.022;2023-04-25T04:49:24;17.10;62.80
37806;DHT22;25082;50.870;0.022;2023-04-25T04:51:50;17.10;62.80
37806;DHT22;25082;50.870;0.022;2023-04-25T04:54:15;17.10;62.80
37806;DHT22;25082;50.870;0.022;2023-04-25T04:56:41;17.10;62.80
37806;DHT22;25082;50.870;0.022;2023-04-25T04:59:07;17.10;62.70
37806;DHT22;25082;50.870;0.022;2023-04-25T05:01:33;17.00;62.50
37806;DHT22;25082;50.870;0.022;2023-04-25T05:04:01;17.10;62.70
37806;DHT22;25082;50.870;0.022;2023-04-25T05:06:28;17.10;62.60
37806;DHT22;25082;50.870;0.022;2023-04-25T05:08:57;17.00;62.40
37806;DHT22;25082;50.870;0.022;2023-04-25T05:11:24;17.00;62.40
37806;DHT22;25082;50.870;0.022;2023-04-25T05:13:52;17.00;62.50
37806;DHT22;25082;50.870;0.022;2023-04-25T05:16:18;17.00;62.50
37806;DHT22;25082;50.870;0.022;2023-04-25T05:18:44;17.00;62.50
37806;DHT22;25082;50.870;0.022;2023-04-25T05:21:10;16.90;62.30
37806;DHT22;25082;50.870;0.022;2023-04-25T05:23:35;16.90;62.30
37806;DHT22;25082;50.870;0.022;2023-04-25T05:26:01;16.90;62.30
37806;DHT22;25082;50.870;0.022;2023-04-25T05:28:27;16.90;62.30
37806;DHT22;25082;50.870;0.022;2023-04-25T05:30:53;16.90;62.30
37806;DHT22;25082;50.870;0.022;2023-04-25T05:33:18;16.90;62.20
37806;DHT22;25082;50.870;0.022;2023-04-25T05:35:44;16.90;62.20
37806;DHT22;25082;50.870;0.022;2023-04-25T05:38:10;16.90;62.20
37806;DHT22;25082;50.870;0.022;2023-04-25T05:40:36;16.90;62.20
37806;DHT22;25082;50.870;0.022;2023-04-25T05:43:02;16.90;62.30
37806;DHT22;25082;50.870;0.022;2023-04-25T05:45:28;16.90;62.20
37806;DHT22;25082;50.870;0.022;2023-04-25T05:47:54;16.90;62.20
37806;DHT22;25082;50.870;0.022;2023-04-25T05:50:20;16.90;62.10
37806;DHT22;25082;50.870;0.022;2023-04-25T05:52:45;16.90;62.10
37806;DHT22;25082;50.870;0.022;2023-04-25T05:55:11;16.80;62.10
37806;DHT22;25082;50.870;0.022;2023-04-25T05:57:37;16.80;62.00
37806;DHT22;25082;50.870;0.022;2023-04-25T06:00:07;16.80;62.00
37806;DHT22;25082;50.870;0.022;2023-04-25T06:02:34;16.80;62.00
37806;DHT22;25082;50.870;0.022;2023-04-25T06:05:01;16.80;62.00
37806;DHT22;25082;50.870;0.022;2023-04-25T06:07:29;16.80;62.00
37806;DHT22;25082;50.870;0.022;2023-04-25T06:09:55;16.80;61.90
37806;DHT22;25082;50.870;0.022;2023-04-25T06:12:21;16.80;62.00
37806;DHT22;25082;50.870;0.022;2023-04-25T06:14:47;16.80;61.90
37806;DHT22;25082;50.870;0.022;2023-04-25T06:17:13;16.80;61.90
37806;DHT22;25082;50.870;0.022;2023-04-25T06:19:38;16.80;61.90
37806;DHT22;25082;50.870;0.022;2023-04-25T06:22:04;16.80;62.00
37806;DHT22;25082;50.870;0.022;2023-04-25T06:24:30;16.80;61.90
37806;DHT22;25082;50.870;0.022;2023-04-25T06:26:56;16.70;61.90
37806;DHT22;25082;50.870;0.022;2023-04-25T06:29:21;16.80;61.80
37806;DHT22;25082;50.870;0.022;2023-04-25T06:31:47;16.70;61.80
37806;DHT22;25082;50.870;0.022;2023-04-25T06:34:13;16.70;61.90
37806;DHT22;25082;50.870;0.022;2023-04-25T06:36:38;16.70;61.80
37806;DHT22;25082;50.870;0.022;2023-04-25T06:39:04;16.70;61.90
37806;DHT22;25082;50.870;0.022;2023-04-25T06:41:30;16.70;61.90
37806;DHT22;25082;50.870;0.022;2023-04-25T06:43:55;16.70;61.90
37806;DHT22;25082;50.870;0.022;2023-04-25T06:46:21;16.70;62.00
37806;DHT22;25082;50.870;0.022;2023-04-25T06:48:47;16.80;62.00
37806;DHT22;25082;50.870;0.022;2023-04-25T06:51:12;16.70;61.80
37806;DHT22;25082;50.870;0.022;2023-04-25T06:53:41;16.80;61.60
37806;DHT22;25082;50.870;0.022;2023-04-25T06:56:07;16.80;61.40
37806;DHT22;25082;50.870;0.022;2023-04-25T06:58:32;16.80;61.30
37806;DHT22;25082;50.870;0.022;2023-04-25T07:00:58;16.90;61.20
37806;DHT22;25082;50.870;0.022;2023-04-25T07:03:24;16.90;61.20
37806;DHT22;25082;50.870;0.022;2023-04-25T07:05:50;16.90;61.10
37806;DHT22;25082;50.870;0.022;2023-04-25T07:08:16;16.90;61.10
37806;DHT22;25082;50.870;0.022;2023-04-25T07:10:42;16.90;61.10
37806;DHT22;25082;50.870;0.022;2023-04-25T07:13:08;17.00;61.10
37806;DHT22;25082;50.870;0.022;2023-04-25T07:15:34;17.00;61.10
37806;DHT22;25082;50.870;0.022;2023-04-25T07:17:59;17.00;61.10
37806;DHT22;25082;50.870;0.022;2023-04-25T07:20:25;17.00;61.10
37806;DHT22;25082;50.870;0.022;2023-04-25T07:22:53;17.00;61.10
37806;DHT22;25082;50.870;0.022;2023-04-25T07:25:19;17.10;61.10
37806;DHT22;25082;50.870;0.022;2023-04-25T07:27:45;17.10;61.70
37806;DHT22;25082;50.870;0.022;2023-04-25T07:30:11;17.10;61.10
37806;DHT22;25082;50.870;0.022;2023-04-25T07:32:38;17.10;61.10
37806;DHT22;25082;50.870;0.022;2023-04-25T07:35:04;17.10;61.10
37806;DHT22;25082;50.870;0.022;2023-04-25T07:37:30;17.10;61.10
37806;DHT22;25082;50.870;0.022;2023-04-25T07:39:55;17.10;61.70
37806;DHT22;25082;50.870;0.022;2023-04-25T07:42:21;17.10;61.20
37806;DHT22;25082;50.870;0.022;2023-04-25T07:44:47;17.10;61.20
37806;DHT22;25082;50.870;0.022;2023-04-25T07:47:12;17.20;61.30
37806;DHT22;25082;50.870;0.022;2023-04-25T07:49:39;17.20;61.30
37806;DHT22;25082;50.870;0.022;2023-04-25T07:52:06;17.20;61.40
37806;DHT22;25082;50.870;0.022;2023-04-25T07:54:32;17.20;61.40
37806;DHT22;25082;50.870;0.022;2023-04-25T07:56:58;17.20;61.40
37806;DHT22;25082;50.870;0.022;2023-04-25T07:59:24;17.20;61.60
37806;DHT22;25082;50.870;0.022;2023-04-25T08:01:50;17.30;62.00
37806;DHT22;25082;50.870;0.022;2023-04-25T08:04:16;17.30;62.20
37806;DHT22;25082;50.870;0.022;2023-04-25T08:06:42;17.30;62.70
37806;DHT22;25082;50.870;0.022;2023-04-25T08:09:09;17.30;63.00
37806;DHT22;25082;50.870;0.022;2023-04-25T08:11:35;17.30;63.40
37806;DHT22;25082;50.870;0.022;2023-04-25T08:14:01;17.40;63.60
37806;DHT22;25082;50.870;0.022;2023-04-25T08:16:27;17.40;63.60
37806;DHT22;25082;50.870;0.022;2023-04-25T08:18:53;17.40;63.70
37806;DHT22;25082;50.870;0.022;2023-04-25T08:21:21;17.50;63.80
37806;DHT22;25082;50.870;0.022;2023-04-25T08:23:47;17.40;63.80
37806;DHT22;25082;50.870;0.022;2023-04-25T08:26:13;17.50;63.90
37806;DHT22;25082;50.870;0.022;2023-04-25T08:28:39;17.50;64.00
37806;DHT22;25082;50.870;0.022;2023-04-25T08:31:04;17.50;64.00
37806;DHT22;25082;50.870;0.022;2023-04-25T08:33:30;17.60;64.10
37806;DHT22;25082;50.870;0.022;2023-04-25T08:35:57;17.60;64.20
37806;DHT22;25082;50.870;0.022;2023-04-25T08:38:22;17.60;64.10
37806;DHT22;25082;50.870;0.022;2023-04-25T08:40:51;17.60;63.90
37806;DHT22;25082;50.870;0.022;2023-04-25T08:43:19;17.60;63.80
37806;DHT22;25082;50.870;0.022;2023-04-25T08:45:45;17.70;63.80
37806;DHT22;25082;50.870;0.022;2023-04-25T08:48:13;17.60;63.80
37806;DHT22;25082;50.870;0.022;2023-04-25T08:50:49;17.60;59.20
37806;DHT22;25082;50.870;0.022;2023-04-25T08:53:25;17.40;56.70
37806;DHT22;25082;50.870;0.022;2023-04-25T08:55:54;17.30;56.40
37806;DHT22;25082;50.870;0.022;2023-04-25T08:58:20;17.30;57.60
37806;DHT22;25082;50.870;0.022;2023-04-25T09:00:47;17.30;58.10
37806;DHT22;25082;50.870;0.022;2023-04-25T09:03:13;17.30;58.40
37806;DHT22;25082;50.870;0.022;2023-04-25T09:05:41;17.40;59.10
37806;DHT22;25082;50.870;0.022;2023-04-25T09:08:07;17.40;59.70
37806;DHT22;25082;50.870;0.022;2023-04-25T09:10:33;17.50;60.30
37806;DHT22;25082;50.870;0.022;2023-04-25T09:13:03;17.50;60.60
37806;DHT22;25082;50.870;0.022;2023-04-25T09:15:31;17.50;61.00
37806;DHT22;25082;50.870;0.022;2023-04-25T09:17:57;17.60;61.30
37806;DHT22;25082;50.870;0.022;2023-04-25T09:20:23;17.60;61.50
37806;DHT22;25082;50.870;0.022;2023-04-25T09:23:04;17.70;61.70
37806;DHT22;25082;50.870;0.022;2023-04-25T09:25:35;17.70;61.90
37806;DHT22;25082;50.870;0.022;2023-04-25T09:28:04;17.70;62.00
37806;DHT22;25082;50.870;0.022;2023-04-25T09:30:32;17.70;62.10
37806;DHT22;25082;50.870;0.022;2023-04-25T09:33:07;17.80;62.30
37806;DHT22;25082;50.870;0.022;2023-04-25T09:35:42;17.80;62.30
37806;DHT22;25082;50.870;0.022;2023-04-25T09:38:13;17.80;62.30
37806;DHT22;25082;50.870;0.022;2023-04-25T09:40:44;17.80;62.40
37806;DHT22;25082;50.870;0.022;2023-04-25T09:43:22;17.80;62.30
37806;DHT22;25082;50.870;0.022;2023-04-25T09:45:49;17.90;62.30
37806;DHT22;25082;50.870;0.022;2023-04-25T09:48:18;17.80;62.50
37806;DHT22;25082;50.870;0.022;2023-04-25T09:50:45;17.90;62.50
37806;DHT22;25082;50.870;0.022;2023-04-25T09:53:10;17.90;62.50
37806;DHT22;25082;50.870;0.022;2023-04-25T09:55:38;17.90;62.80
37806;DHT22;25082;50.870;0.022;2023-04-25T09:58:05;17.90;62.70
37806;DHT22;25082;50.870;0.022;2023-04-25T10:00:34;17.90;62.80
37806;DHT22;25082;50.870;0.022;2023-04-25T10:03:04;17.90;62.80
37806;DHT22;25082;50.870;0.022;2023-04-25T10:05:32;17.90;62.80
37806;DHT22;25082;50.870;0.022;2023-04-25T10:08:03;18.00;62.90
37806;DHT22;25082;50.870;0.022;2023-04-25T10:10:30;17.90;62.90
37806;DHT22;25082;50.870;0.022;2023-04-25T10:13:04;18.00;63.00
37806;DHT22;25082;50.870;0.022;2023-04-25T10:15:33;18.00;62.90
37806;DHT22;25082;50.870;0.022;2023-04-25T10:18:01;18.00;63.00
37806;DHT22;25082;50.870;0.022;2023-04-25T10:20:27;18.10;63.00
37806;DHT22;25082;50.870;0.022;2023-04-25T10:22:54;18.00;63.00
37806;DHT22;25082;50.870;0.022;2023-04-25T10:25:23;18.10;63.00
37806;DHT22;25082;50.870;0.022;2023-04-25T10:27:51;18.10;62.90
37806;DHT22;25082;50.870;0.022;2023-04-25T10:30:18;18.10;62.60
37806;DHT22;25082;50.870;0.022;2023-04-25T10:32:44;18.10;62.50
37806;DHT22;25082;50.870;0.022;2023-04-25T10:35:25;18.10;62.50
37806;DHT22;25082;50.870;0.022;2023-04-25T10:38:04;18.10;62.70
37806;DHT22;25082;50.870;0.022;2023-04-25T10:40:31;18.10;62.60
37806;DHT22;25082;50.870;0.022;2023-04-25T10:46:26;18.20;62.80
37806;DHT22;25082;50.870;0.022;2023-04-25T10:48:59;18.10;62.70
37806;DHT22;25082;50.870;0.022;2023-04-25T10:51:27;18.20;62.70
37806;DHT22;25082;50.870;0.022;2023-04-25T10:56:28;18.20;57.40
37806;DHT22;25082;50.870;0.022;2023-04-25T11:01:39;18.00;58.70
37806;DHT22;25082;50.870;0.022;2023-04-25T11:04:05;18.00;59.00
37806;DHT22;25082;50.870;0.022;2023-04-25T11:09:34;18.10;59.50
37806;DHT22;25082;50.870;0.022;2023-04-25T11:12:00;18.10;58.70
37806;DHT22;25082;50.870;0.022;2023-04-25T11:14:26;18.00;57.70
37806;DHT22;25082;50.870;0.022;2023-04-25T11:16:56;18.00;58.40
37806;DHT22;25082;50.870;0.022;2023-04-25T11:19:23;18.00;59.50
37806;DHT22;25082;50.870;0.022;2023-04-25T11:21:50;18.10;59.80
37806;DHT22;25082;50.870;0.022;2023-04-25T11:24:18;18.10;60.50
37806;DHT22;25082;50.870;0.022;2023-04-25T11:26:47;18.10;60.70
37806;DHT22;25082;50.870;0.022;2023-04-25T11:29:13;18.20;60.60
37806;DHT22;25082;50.870;0.022;2023-04-25T11:31:43;18.20;61.30
37806;DHT22;25082;50.870;0.022;2023-04-25T11:34:11;18.30;62.50
37806;DHT22;25082;50.870;0.022;2023-04-25T11:36:38;18.30;62.70
37806;DHT22;25082;50.870;0.022;2023-04-25T11:39:04;18.30;62.60
37806;DHT22;25082;50.870;0.022;2023-04-25T11:41:31;18.30;62.80
37806;DHT22;25082;50.870;0.022;2023-04-25T11:43:57;18.40;62.90
37806;DHT22;25082;50.870;0.022;2023-04-25T11:46:23;18.40;62.70
37806;DHT22;25082;50.870;0.022;2023-04-25T11:48:50;18.40;63.30
37806;DHT22;25082;50.870;0.022;2023-04-25T11:51:16;18.40;63.90
37806;DHT22;25082;50.870;0.022;2023-04-25T11:53:44;18.50;63.40
37806;DHT22;25082;50.870;0.022;2023-04-25T11:56:10;18.50;63.00
37806;DHT22;25082;50.870;0.022;2023-04-25T11:59:14;18.50;62.90
37806;DHT22;25082;50.870;0.022;2023-04-25T12:01:41;18.50;63.30
37806;DHT22;25082;50.870;0.022;2023-04-25T12:04:13;18.50;63.70
37806;DHT22;25082;50.870;0.022;2023-04-25T12:06:41;18.60;63.90
37806;DHT22;25082;50.870;0.022;2023-04-25T12:09:11;18.60;64.00
37806;DHT22;25082;50.870;0.022;2023-04-25T12:11:45;18.60;64.00
37806;DHT22;25082;50.870;0.022;2023-04-25T12:14:19;18.70;64.70
37806;DHT22;25082;50.870;0.022;2023-04-25T12:16:46;18.70;63.80
37806;DHT22;25082;50.870;0.022;2023-04-25T12:19:16;18.70;63.40
37806;DHT22;25082;50.870;0.022;2023-04-25T12:21:43;18.70;63.10
37806;DHT22;25082;50.870;0.022;2023-04-25T12:24:21;18.70;62.90
37806;DHT22;25082;50.870;0.022;2023-04-25T12:26:52;18.70;62.80
37806;DHT22;25082;50.870;0.022;2023-04-25T12:29:23;18.70;63.10
37806;DHT22;25082;50.870;0.022;2023-04-25T12:31:50;18.70;62.90
37806;DHT22;25082;50.870;0.022;2023-04-25T12:34:17;18.70;62.80
37806;DHT22;25082;50.870;0.022;2023-04-25T12:36:43;18.70;62.80
37806;DHT22;25082;50.870;0.022;2023-04-25T12:39:17;18.70;62.70
37806;DHT22;25082;50.870;0.022;2023-04-25T12:41:45;18.70;62.90
37806;DHT22;25082;50.870;0.022;2023-04-25T12:44:11;18.70;63.10
37806;DHT22;25082;50.870;0.022;2023-04-25T12:46:37;18.70;63.20
37806;DHT22;25082;50.870;0.022;2023-04-25T12:49:04;18.80;63.30
37806;DHT22;25082;50.870;0.022;2023-04-25T12:51:31;18.70;63.30
37806;DHT22;25082;50.870;0.022;2023-04-25T12:53:58;18.80;63.40
37806;DHT22;25082;50.870;0.022;2023-04-25T12:56:25;18.80;63.30
37806;DHT22;25082;50.870;0.022;2023-04-25T12:58:52;18.80;63.30
37806;DHT22;25082;50.870;0.022;2023-04-25T13:01:17;18.80;63.30
37806;DHT22;25082;50.870;0.022;2023-04-25T13:03:43;18.80;63.30
37806;DHT22;25082;50.870;0.022;2023-04-25T13:06:09;18.80;63.10
37806;DHT22;25082;50.870;0.022;2023-04-25T13:08:35;18.80;62.60
37806;DHT22;25082;50.870;0.022;2023-04-25T13:11:02;18.80;62.40
37806;DHT22;25082;50.870;0.022;2023-04-25T13:13:29;18.80;62.30
37806;DHT22;25082;50.870;0.022;2023-04-25T13:15:55;18.80;62.30
37806;DHT22;25082;50.870;0.022;2023-04-25T13:18:21;18.80;62.70
37806;DHT22;25082;50.870;0.022;2023-04-25T13:20:46;18.80;62.70
37806;DHT22;25082;50.870;0.022;2023-04-25T13:23:12;18.80;62.70
37806;DHT22;25082;50.870;0.022;2023-04-25T13:25:38;18.80;62.80
37806;DHT22;25082;50.870;0.022;2023-04-25T13:28:04;18.80;62.70
37806;DHT22;25082;50.870;0.022;2023-04-25T13:30:30;18.80;62.70
37806;DHT22;25082;50.870;0.022;2023-04-25T13:32:55;18.80;62.60
37806;DHT22;25082;50.870;0.022;2023-04-25T13:35:22;18.70;54.80
37806;DHT22;25082;50.870;0.022;2023-04-25T13:37:48;18.50;49.70
37806;DHT22;25082;50.870;0.022;2023-04-25T13:40:14;18.30;48.40
37806;DHT22;25082;50.870;0.022;2023-04-25T13:42:40;18.30;52.30
37806;DHT22;25082;50.870;0.022;2023-04-25T13:45:06;18.30;55.30
37806;DHT22;25082;50.870;0.022;2023-04-25T13:47:33;18.30;55.70
37806;DHT22;25082;50.870;0.022;2023-04-25T13:49:59;18.30;56.70
37806;DHT22;25082;50.870;0.022;2023-04-25T13:52:25;18.40;57.60
37806;DHT22;25082;50.870;0.022;2023-04-25T13:54:51;18.40;58.70
37806;DHT22;25082;50.870;0.022;2023-04-25T13:57:17;18.50;59.20
37806;DHT22;25082;50.870;0.022;2023-04-25T13:59:43;18.50;59.20
37806;DHT22;25082;50.870;0.022;2023-04-25T14:02:09;18.60;60.00
37806;DHT22;25082;50.870;0.022;2023-04-25T14:04:35;18.60;60.50
37806;DHT22;25082;50.870;0.022;2023-04-25T14:07:02;18.60;60.90
37806;DHT22;25082;50.870;0.022;2023-04-25T14:09:28;18.60;61.00
37806;DHT22;25082;50.870;0.022;2023-04-25T14:11:54;18.60;61.20
37806;DHT22;25082;50.870;0.022;2023-04-25T14:14:21;18.70;61.20
37806;DHT22;25082;50.870;0.022;2023-04-25T14:16:47;18.70;61.30
37806;DHT22;25082;50.870;0.022;2023-04-25T14:19:17;18.70;61.30
37806;DHT22;25082;50.870;0.022;2023-04-25T14:21:43;18.70;61.50
37806;DHT22;25082;50.870;0.022;2023-04-25T14:24:10;18.80;62.10
37806;DHT22;25082;50.870;0.022;2023-04-25T14:26:38;18.80;62.00
37806;DHT22;25082;50.870;0.022;2023-04-25T14:29:05;18.80;61.90
37806;DHT22;25082;50.870;0.022;2023-04-25T14:31:32;18.70;61.70
37806;DHT22;25082;50.870;0.022;2023-04-25T14:33:58;18.80;61.50
37806;DHT22;25082;50.870;0.022;2023-04-25T14:36:24;18.90;61.60
37806;DHT22;25082;50.870;0.022;2023-04-25T14:38:52;18.80;61.50
37806;DHT22;25082;50.870;0.022;2023-04-25T14:41:18;18.80;61.50
37806;DHT22;25082;50.870;0.022;2023-04-25T14:43:43;18.80;61.60
37806;DHT22;25082;50.870;0.022;2023-04-25T14:46:10;18.80;61.70
37806;DHT22;25082;50.870;0.022;2023-04-25T14:48:36;18.80;61.70
37806;DHT22;25082;50.870;0.022;2023-04-25T14:51:02;18.80;61.40
37806;DHT22;25082;50.870;0.022;2023-04-25T14:53:28;18.80;61.60
37806;DHT22;25082;50.870;0.022;2023-04-25T14:55:54;18.90;62.40
37806;DHT22;25082;50.870;0.022;2023-04-25T14:58:20;18.90;62.20
37806;DHT22;25082;50.870;0.022;2023-04-25T15:00:46;18.90;62.30
37806;DHT22;25082;50.870;0.022;2023-04-25T15:03:12;18.90;62.30
37806;DHT22;25082;50.870;0.022;2023-04-25T15:05:42;18.90;62.20
37806;DHT22;25082;50.870;0.022;2023-04-25T15:08:08;18.90;62.10
37806;DHT22;25082;50.870;0.022;2023-04-25T15:10:34;18.90;62.00
37806;DHT22;25082;50.870;0.022;2023-04-25T15:13:00;19.00;62.00
37806;DHT22;25082;50.870;0.022;2023-04-25T15:15:26;18.90;62.00
37806;DHT22;25082;50.870;0.022;2023-04-25T15:17:52;19.00;62.10
37806;DHT22;25082;50.870;0.022;2023-04-25T15:20:20;19.00;62.00
37806;DHT22;25082;50.870;0.022;2023-04-25T15:22:46;19.00;62.00
37806;DHT22;25082;50.870;0.022;2023-04-25T15:25:14;19.00;62.00
37806;DHT22;25082;50.870;0.022;2023-04-25T15:27:41;19.00;61.90
37806;DHT22;25082;50.870;0.022;2023-04-25T15:30:10;19.00;61.90
37806;DHT22;25082;50.870;0.022;2023-04-25T15:32:38;19.00;61.60
37806;DHT22;25082;50.870;0.022;2023-04-25T15:35:05;18.90;55.00
37806;DHT22;25082;50.870;0.022;2023-04-25T15:37:32;18.80;52.00
37806;DHT22;25082;50.870;0.022;2023-04-25T15:42:30;18.50;48.20